Time;durP1;ratioP1;P1;durP2;ratioP2;P2;SDS_P1;SDS_P2;PMS_P1;PMS_P2;Temp;Humidity;BMP_temperature;BMP_pressure;BME280_temperature;BME280_humidity;BME280_pressure;Samples;Min_cycle;Max_cycle;Signal;HPM_P1;HPM_P2
2021/04/25 00:02:04;;;;;;;1.05;0.57;;;21.30;42.70;;;;;;6320371;28;20107;-62
2021/04/25 00:05:06;;;;;;;1.13;0.60;;;21.30;42.70;;;;;;6319982;28;20020;-63
2021/04/25 00:08:07;;;;;;;1.38;0.57;;;21.30;42.80;;;;;;6320399;28;20093;-63
2021/04/25 00:11:08;;;;;;;0.88;0.65;;;21.30;42.90;;;;;;6319556;28;20028;-63
2021/04/25 00:14:09;;;;;;;1.60;0.70;;;21.30;42.60;;;;;;6320190;28;20527;-63
2021/04/25 00:17:09;;;;;;;0.80;0.68;;;21.30;42.70;;;;;;6320204;28;20035;-62
2021/04/25 00:20:12;;;;;;;0.55;0.50;;;21.30;42.80;;;;;;6319711;28;20039;-62
2021/04/25 00:23:12;;;;;;;1.20;0.70;;;21.30;42.70;;;;;;6320170;28;20035;-62
2021/04/25 00:26:13;;;;;;;0.68;0.50;;;21.30;42.80;;;;;;6319684;28;20032;-62
2021/04/25 00:29:13;;;;;;;0.55;0.50;;;21.30;42.80;;;;;;6320022;28;20486;-63
2021/04/25 00:32:14;;;;;;;0.73;0.50;;;21.30;42.90;;;;;;6319418;28;20030;-62
2021/04/25 00:35:16;;;;;;;1.92;0.73;;;21.30;42.80;;;;;;6319527;28;20429;-63
2021/04/25 00:38:17;;;;;;;0.47;0.47;;;21.30;42.90;;;;;;6319261;28;20020;-62
2021/04/25 00:41:17;;;;;;;1.23;0.80;;;21.30;42.80;;;;;;6319339;28;20028;-63
2021/04/25 00:44:18;;;;;;;3.38;0.50;;;21.30;42.90;;;;;;6319095;28;20040;-62
2021/04/25 00:47:18;;;;;;;0.73;0.50;;;21.30;42.80;;;;;;6319792;28;20505;-63
2021/04/25 00:50:24;;;;;;;0.50;0.50;;;21.30;42.90;;;;;;6319122;28;20472;-63
2021/04/25 00:53:25;;;;;;;0.73;0.52;;;21.30;42.80;;;;;;6319163;28;20036;-63
2021/04/25 00:56:26;;;;;;;0.77;0.60;;;21.30;42.80;;;;;;6319307;28;20040;-62
2021/04/25 00:59:27;;;;;;;0.82;0.55;;;21.30;42.90;;;;;;6319051;28;20024;-62
2021/04/25 01:02:29;;;;;;;0.60;0.40;;;21.30;42.90;;;;;;6318700;28;20440;-63
2021/04/25 01:05:29;;;;;;;0.50;0.40;;;21.30;42.90;;;;;;6318471;28;20077;-63
2021/04/25 01:08:30;;;;;;;0.57;0.57;;;21.30;42.90;;;;;;6318676;28;20028;-63
2021/04/25 01:11:30;;;;;;;0.68;0.63;;;21.30;42.90;;;;;;6318186;28;20019;-62
2021/04/25 01:14:31;;;;;;;0.93;0.65;;;21.30;43.00;;;;;;6318666;28;20089;-63
2021/04/25 01:17:32;;;;;;;0.90;0.63;;;21.30;42.90;;;;;;6318283;28;20434;-62
2021/04/25 01:20:33;;;;;;;0.90;0.45;;;21.30;43.00;;;;;;6318535;28;20027;-64
2021/04/25 01:23:34;;;;;;;0.73;0.50;;;21.30;43.00;;;;;;6318447;28;20507;-63
2021/04/25 01:26:34;;;;;;;0.60;0.50;;;21.30;43.80;;;;;;6318261;28;20056;-63
2021/04/25 01:29:36;;;;;;;0.88;0.60;;;21.30;43.00;;;;;;6317630;28;20041;-63
2021/04/25 01:32:39;;;;;;;1.15;0.60;;;21.30;43.10;;;;;;6318013;28;20024;-63
2021/04/25 01:35:40;;;;;;;0.50;0.50;;;21.30;43.00;;;;;;6318088;28;20034;-63
2021/04/25 01:38:40;;;;;;;0.80;0.60;;;21.30;43.10;;;;;;6317741;28;20382;-63
2021/04/25 01:41:41;;;;;;;0.70;0.70;;;21.30;42.90;;;;;;6317974;28;20118;-63
2021/04/25 01:44:42;;;;;;;1.02;0.60;;;21.30;43.10;;;;;;6318000;28;20262;-62
2021/04/25 01:47:54;;;;;;;0.47;0.47;;;21.30;43.10;;;;;;6318266;28;20024;-62
2021/04/25 01:50:55;;;;;;;1.13;0.60;;;21.30;43.10;;;;;;6317855;28;20035;-62
2021/04/25 01:53:55;;;;;;;0.75;0.55;;;21.30;43.00;;;;;;6317609;28;20474;-63
2021/04/25 01:56:56;;;;;;;1.05;0.77;;;21.30;43.10;;;;;;6318019;28;20495;-63
2021/04/25 01:59:56;;;;;;;0.45;0.45;;;21.30;43.10;;;;;;6317798;28;20101;-62
2021/04/25 02:02:57;;;;;;;1.17;0.63;;;21.30;43.10;;;;;;6317930;28;20107;-64
2021/04/25 02:05:57;;;;;;;0.57;0.50;;;21.30;43.10;;;;;;6317882;28;20463;-63
2021/04/25 02:08:58;;;;;;;0.93;0.50;;;21.30;43.20;;;;;;6317347;28;20035;-63
2021/04/25 02:11:58;;;;;;;0.57;0.50;;;21.30;43.10;;;;;;6317563;28;20445;-63
2021/04/25 02:14:59;;;;;;;1.75;0.82;;;21.30;43.10;;;;;;6317795;28;20055;-63
2021/04/25 02:18:01;;;;;;;0.38;0.38;;;21.30;43.10;;;;;;6320813;28;20028;-62
2021/04/25 02:21:01;;;;;;;0.82;0.52;;;21.30;43.20;;;;;;6322710;28;20016;-63
2021/04/25 02:24:02;;;;;;;0.52;0.43;;;21.30;43.10;;;;;;6322412;28;20032;-63
2021/04/25 02:27:03;;;;;;;0.55;0.55;;;21.30;43.10;;;;;;6322623;28;20095;-63
2021/04/25 02:30:12;;;;;;;0.73;0.60;;;21.30;43.10;;;;;;6320478;28;20023;-63
2021/04/25 02:33:13;;;;;;;0.60;0.57;;;21.30;43.10;;;;;;6322347;28;20024;-63
2021/04/25 02:36:14;;;;;;;0.73;0.60;;;21.30;43.20;;;;;;6322585;28;20025;-62
2021/04/25 02:39:15;;;;;;;1.08;0.80;;;21.30;43.10;;;;;;6321931;28;20216;-63
2021/04/25 02:42:15;;;;;;;0.85;0.57;;;21.30;43.20;;;;;;6322554;28;20542;-63
2021/04/25 02:45:18;;;;;;;1.17;0.60;;;21.30;43.30;;;;;;6321531;28;20031;-63
2021/04/25 02:48:19;;;;;;;0.40;0.40;;;21.30;43.20;;;;;;6321878;28;20048;-63
2021/04/25 02:51:19;;;;;;;0.88;0.50;;;21.30;43.10;;;;;;6321863;28;20036;-63
2021/04/25 02:54:20;;;;;;;0.80;0.50;;;21.30;43.20;;;;;;6321825;28;20028;-63
2021/04/25 02:57:22;;;;;;;1.15;0.60;;;21.20;43.20;;;;;;6322337;28;20028;-63
2021/04/25 03:00:25;;;;;;;0.57;0.50;;;21.30;43.20;;;;;;6321725;28;20105;-62
2021/04/25 03:03:25;;;;;;;0.75;0.50;;;21.20;43.10;;;;;;6321516;28;20479;-63
2021/04/25 03:06:26;;;;;;;0.40;0.40;;;21.20;43.10;;;;;;6321740;28;20051;-64
2021/04/25 03:09:26;;;;;;;0.95;0.70;;;21.20;43.20;;;;;;6321591;28;20119;-63
2021/04/25 03:12:27;;;;;;;1.25;0.70;;;21.20;43.20;;;;;;6321328;28;20055;-63
2021/04/25 03:15:27;;;;;;;0.50;0.40;;;21.30;43.30;;;;;;6321210;28;20141;-64
2021/04/25 03:18:29;;;;;;;0.50;0.50;;;21.30;43.30;;;;;;6320775;28;20028;-64
2021/04/25 03:21:29;;;;;;;0.82;0.40;;;21.20;43.20;;;;;;6321463;28;20031;-64
2021/04/25 03:24:30;;;;;;;0.55;0.52;;;21.20;43.10;;;;;;6321096;28;20463;-63
2021/04/25 03:27:30;;;;;;;1.27;0.60;;;21.30;43.30;;;;;;6321174;28;20063;-63
2021/04/25 03:30:31;;;;;;;0.82;0.47;;;21.30;43.40;;;;;;6320338;28;20385;-63
2021/04/25 03:33:31;;;;;;;0.80;0.57;;;21.30;43.30;;;;;;6320991;28;20070;-62
2021/04/25 03:36:33;;;;;;;0.65;0.60;;;21.30;43.30;;;;;;6295980;28;20024;-63
2021/04/25 03:39:34;;;;;;;0.50;0.45;;;21.20;43.90;;;;;;6303234;28;20276;-62
2021/04/25 03:42:35;;;;;;;0.52;0.47;;;21.20;43.20;;;;;;6320981;28;20020;-62
2021/04/25 03:45:35;;;;;;;0.75;0.50;;;21.20;43.30;;;;;;6320311;28;20101;-64
2021/04/25 03:48:36;;;;;;;0.70;0.50;;;21.20;43.20;;;;;;6320495;28;20052;-63
2021/04/25 03:51:37;;;;;;;0.85;0.55;;;21.30;43.30;;;;;;6320347;28;20513;-62
2021/04/25 03:54:37;;;;;;;1.05;0.50;;;21.20;43.30;;;;;;6320347;28;20039;-63
2021/04/25 03:57:38;;;;;;;0.50;0.43;;;21.20;43.30;;;;;;6320350;28;20024;-63
2021/04/25 04:00:41;;;;;;;0.65;0.50;;;21.20;43.30;;;;;;6320397;28;20102;-63
2021/04/25 04:03:42;;;;;;;0.60;0.50;;;21.20;43.20;;;;;;6320089;28;20501;-65
2021/04/25 04:06:43;;;;;;;0.73;0.50;;;21.20;43.40;;;;;;6319813;28;20062;-63
2021/04/25 04:09:43;;;;;;;1.15;0.63;;;21.20;43.30;;;;;;6318578;28;20028;-63
2021/04/25 04:12:44;;;;;;;1.05;0.47;;;21.20;43.30;;;;;;6320316;28;20035;-63
2021/04/25 04:15:44;;;;;;;0.73;0.60;;;21.20;43.30;;;;;;6319871;28;20054;-63
2021/04/25 04:18:45;;;;;;;1.08;0.55;;;21.20;43.30;;;;;;6320665;28;20108;-64
2021/04/25 04:21:45;;;;;;;0.88;0.60;;;21.20;43.20;;;;;;6320677;28;20040;-63
2021/04/25 04:24:46;;;;;;;0.57;0.47;;;21.20;43.30;;;;;;6319032;28;20485;-62
2021/04/25 04:27:46;;;;;;;0.88;0.60;;;21.20;43.30;;;;;;6319432;28;20030;-63
2021/04/25 04:30:47;;;;;;;0.90;0.60;;;21.20;43.20;;;;;;6320650;28;20503;-63
2021/04/25 04:33:48;;;;;;;0.52;0.50;;;21.20;43.30;;;;;;6319485;28;20486;-63
2021/04/25 04:36:48;;;;;;;0.60;0.50;;;21.20;43.40;;;;;;6319585;28;20036;-63
2021/04/25 04:39:49;;;;;;;0.65;0.50;;;21.20;43.30;;;;;;6318309;28;20080;-63
2021/04/25 04:42:49;;;;;;;1.27;0.73;;;21.20;43.30;;;;;;6319787;28;20032;-63
2021/04/25 04:45:52;;;;;;;0.70;0.57;;;21.20;44.00;;;;;;6319220;28;20071;-63
2021/04/25 04:48:52;;;;;;;0.93;0.50;;;21.20;43.30;;;;;;6319929;28;20036;-63
2021/04/25 04:51:53;;;;;;;0.60;0.50;;;21.20;43.30;;;;;;6318819;28;20422;-63
2021/04/25 04:54:54;;;;;;;1.08;0.50;;;21.20;43.30;;;;;;6318896;28;20148;-63
2021/04/25 04:57:54;;;;;;;1.05;0.47;;;21.20;43.40;;;;;;6318504;28;20099;-64
2021/04/25 05:00:55;;;;;;;0.50;0.50;;;21.20;43.30;;;;;;6318440;28;20021;-64
2021/04/25 05:03:55;;;;;;;0.40;0.40;;;21.20;43.30;;;;;;6318860;28;20032;-63
2021/04/25 05:06:56;;;;;;;0.43;0.43;;;21.20;43.20;;;;;;6318290;28;20486;-63
2021/04/25 05:09:56;;;;;;;0.73;0.60;;;21.20;43.30;;;;;;6318290;28;20024;-63
2021/04/25 05:12:57;;;;;;;0.55;0.38;;;21.20;43.30;;;;;;6318678;28;20024;-62
2021/04/25 05:15:57;;;;;;;0.60;0.40;;;21.20;43.30;;;;;;6318420;28;20079;-62
2021/04/25 05:18:58;;;;;;;0.50;0.40;;;21.20;44.00;;;;;;6318454;28;20260;-62
2021/04/25 05:21:58;;;;;;;0.65;0.50;;;21.20;43.30;;;;;;6318070;28;20116;-63
2021/04/25 05:24:59;;;;;;;0.43;0.40;;;21.20;43.30;;;;;;6318493;28;20036;-62
2021/04/25 05:27:59;;;;;;;0.40;0.40;;;21.20;43.20;;;;;;6318244;28;20028;-62
2021/04/25 05:31:00;;;;;;;0.60;0.40;;;21.20;43.20;;;;;;6316777;28;20036;-62
2021/04/25 05:34:01;;;;;;;0.65;0.43;;;21.20;43.30;;;;;;6318475;28;20031;-62
2021/04/25 05:37:03;;;;;;;0.80;0.63;;;21.20;43.30;;;;;;6318208;28;20359;-62
2021/04/25 05:40:06;;;;;;;1.00;0.50;;;21.20;43.20;;;;;;6318534;28;20039;-62
2021/04/25 05:43:06;;;;;;;0.35;0.35;;;21.20;43.20;;;;;;6318063;28;20093;-63
2021/04/25 05:46:07;;;;;;;0.50;0.40;;;21.20;43.40;;;;;;6318713;28;20393;-63
2021/04/25 05:49:07;;;;;;;0.43;0.40;;;21.20;43.20;;;;;;6317799;28;20056;-63
2021/04/25 05:52:09;;;;;;;0.65;0.57;;;21.20;43.20;;;;;;6317932;28;20063;-62
2021/04/25 05:55:10;;;;;;;0.80;0.40;;;21.20;43.30;;;;;;6318371;28;20054;-63
2021/04/25 05:58:11;;;;;;;0.60;0.60;;;21.20;43.30;;;;;;6318067;28;20035;-62
2021/04/25 06:01:11;;;;;;;1.15;0.50;;;21.20;43.40;;;;;;6318503;28;20470;-62
2021/04/25 06:04:12;;;;;;;0.50;0.38;;;21.10;43.20;;;;;;6317509;28;20359;-63
2021/04/25 06:07:12;;;;;;;0.35;0.35;;;21.10;43.20;;;;;;6317978;28;20496;-62
2021/04/25 06:10:13;;;;;;;0.73;0.50;;;21.10;43.30;;;;;;6318093;28;20020;-62
2021/04/25 06:13:13;;;;;;;0.50;0.40;;;21.20;43.50;;;;;;6317961;28;20020;-62
2021/04/25 06:16:14;;;;;;;0.45;0.40;;;21.10;43.30;;;;;;6317798;28;20051;-62
2021/04/25 06:19:15;;;;;;;0.50;0.50;;;21.10;43.50;;;;;;6317736;28;20028;-62
2021/04/25 06:22:15;;;;;;;0.30;0.30;;;21.10;43.40;;;;;;6317643;28;20085;-63
2021/04/25 06:25:17;;;;;;;0.95;0.50;;;21.10;43.30;;;;;;6317994;28;20389;-62
2021/04/25 06:28:17;;;;;;;1.33;0.30;;;21.10;43.40;;;;;;6317690;28;20031;-62
2021/04/25 06:31:18;;;;;;;0.60;0.50;;;21.10;43.40;;;;;;6318493;28;20474;-63
2021/04/25 06:34:18;;;;;;;0.38;0.35;;;21.10;43.30;;;;;;6317391;28;20443;-63
2021/04/25 06:37:19;;;;;;;0.50;0.30;;;21.10;43.40;;;;;;6317866;28;20024;-62
2021/04/25 06:40:20;;;;;;;0.50;0.38;;;21.10;43.50;;;;;;6317791;28;20397;-63
2021/04/25 06:43:21;;;;;;;0.43;0.35;;;21.10;43.30;;;;;;6317648;28;20024;-62
2021/04/25 06:46:22;;;;;;;0.50;0.47;;;21.10;43.30;;;;;;6317942;28;20020;-63
2021/04/25 06:49:23;;;;;;;0.88;0.55;;;21.10;43.50;;;;;;6316966;28;20173;-63
2021/04/25 06:52:24;;;;;;;0.43;0.40;;;21.10;43.30;;;;;;6317603;28;20020;-62
2021/04/25 06:55:26;;;;;;;0.50;0.30;;;21.10;43.50;;;;;;6317380;28;20032;-62
2021/04/25 06:58:26;;;;;;;0.40;0.40;;;21.10;43.50;;;;;;6317820;28;20016;-63
2021/04/25 07:01:27;;;;;;;0.32;0.30;;;21.10;43.40;;;;;;6317723;28;20039;-63
2021/04/25 07:04:28;;;;;;;1.02;0.50;;;21.10;43.40;;;;;;6319914;28;20142;-63
2021/04/25 07:07:28;;;;;;;0.70;0.30;;;21.10;43.30;;;;;;6322214;28;20035;-62
2021/04/25 07:10:29;;;;;;;1.00;0.70;;;21.10;43.30;;;;;;6321128;28;20103;-62
2021/04/25 07:13:30;;;;;;;0.35;0.30;;;21.10;43.30;;;;;;6321501;28;20035;-63
2021/04/25 07:16:31;;;;;;;0.63;0.47;;;21.10;43.60;;;;;;6321803;28;20024;-62
2021/04/25 07:19:31;;;;;;;0.30;0.30;;;21.10;43.40;;;;;;6321220;28;20509;-63
2021/04/25 07:22:32;;;;;;;0.38;0.30;;;21.10;43.40;;;;;;6321087;28;20498;-63
2021/04/25 07:25:33;;;;;;;0.40;0.40;;;21.10;43.30;;;;;;6321653;28;20389;-63
2021/04/25 07:28:34;;;;;;;0.30;0.30;;;21.10;43.50;;;;;;6320883;28;20024;-62
2021/04/25 07:31:35;;;;;;;0.43;0.35;;;21.10;43.40;;;;;;6321166;28;20043;-62
2021/04/25 07:34:35;;;;;;;0.57;0.40;;;21.10;44.10;;;;;;6320865;28;20060;-62
2021/04/25 07:37:36;;;;;;;0.50;0.40;;;21.10;43.40;;;;;;6321009;28;20030;-63
2021/04/25 07:40:38;;;;;;;0.77;0.50;;;21.10;43.40;;;;;;6320957;28;20497;-63
2021/04/25 07:43:38;;;;;;;0.70;0.43;;;21.10;43.40;;;;;;6321029;28;20121;-63
2021/04/25 07:46:39;;;;;;;0.77;0.45;;;21.10;43.40;;;;;;6320977;28;20020;-63
2021/04/25 07:49:40;;;;;;;0.80;0.32;;;21.10;43.50;;;;;;6320139;28;20268;-63
2021/04/25 07:52:42;;;;;;;0.38;0.30;;;21.10;43.60;;;;;;6320760;28;20300;-62
2021/04/25 07:55:44;;;;;;;0.82;0.50;;;21.10;43.40;;;;;;6318892;28;20495;-63
2021/04/25 07:58:44;;;;;;;0.60;0.40;;;21.10;43.30;;;;;;6320559;28;20028;-62
2021/04/25 08:01:45;;;;;;;0.30;0.30;;;21.10;43.30;;;;;;6320424;28;20043;-63
2021/04/25 08:04:45;;;;;;;0.40;0.30;;;21.10;43.30;;;;;;6320438;28;20023;-63
2021/04/25 08:07:47;;;;;;;0.30;0.30;;;21.10;43.60;;;;;;6320420;28;20032;-63
2021/04/25 08:10:47;;;;;;;0.70;0.60;;;21.10;43.30;;;;;;6320052;28;20031;-62
2021/04/25 08:13:48;;;;;;;0.40;0.40;;;21.10;43.40;;;;;;6320533;28;20517;-62
2021/04/25 08:16:49;;;;;;;0.52;0.30;;;21.10;43.30;;;;;;6319763;28;20024;-63
2021/04/25 08:19:49;;;;;;;0.30;0.30;;;21.10;43.20;;;;;;6319863;28;20539;-62
2021/04/25 08:22:50;;;;;;;0.40;0.40;;;21.10;43.10;;;;;;6320596;28;20028;-63
2021/04/25 08:25:50;;;;;;;0.32;0.30;;;21.10;43.40;;;;;;6320246;28;20061;-62
2021/04/25 08:28:51;;;;;;;0.40;0.30;;;21.10;43.10;;;;;;6320223;28;20046;-63
2021/04/25 08:31:52;;;;;;;0.60;0.50;;;21.10;43.10;;;;;;6319843;28;20024;-62
2021/04/25 08:34:52;;;;;;;0.80;0.40;;;21.10;43.10;;;;;;6319918;28;20040;-63
2021/04/25 08:37:53;;;;;;;0.45;0.45;;;21.10;43.30;;;;;;6319758;28;20039;-62
2021/04/25 08:40:57;;;;;;;0.43;0.40;;;21.10;43.00;;;;;;6319802;28;20048;-63
2021/04/25 08:44:01;;;;;;;0.70;0.40;;;21.10;43.10;;;;;;6319768;28;20395;-62
2021/04/25 08:47:03;;;;;;;0.52;0.40;;;21.10;42.90;;;;;;6319254;28;20024;-62
2021/04/25 08:50:04;;;;;;;0.52;0.40;;;21.10;43.10;;;;;;6319558;28;20050;-63
2021/04/25 08:53:05;;;;;;;0.20;0.20;;;21.10;43.20;;;;;;6319592;28;20020;-62
2021/04/25 08:56:06;;;;;;;0.60;0.30;;;21.10;43.20;;;;;;6319621;28;20039;-62
2021/04/25 08:59:07;;;;;;;0.75;0.50;;;21.10;43.10;;;;;;6319573;28;20024;-63
2021/04/25 09:02:07;;;;;;;0.30;0.30;;;21.10;43.00;;;;;;6319201;28;20024;-63
2021/04/25 09:05:09;;;;;;;0.32;0.30;;;21.10;43.00;;;;;;6319271;28;20040;-63
2021/04/25 09:08:10;;;;;;;0.35;0.30;;;21.10;43.00;;;;;;6317807;28;20024;-63
2021/04/25 09:11:47;;;;;;;0.80;0.47;;;21.10;43.10;;;;;;6319022;28;20435;-63
2021/04/25 09:14:48;;;;;;;1.13;0.30;;;21.10;43.10;;;;;;6296966;28;20063;-65
2021/04/25 09:17:53;;;;;;;0.40;0.30;;;21.10;43.10;;;;;;6319180;28;20389;-65
2021/04/25 09:21:04;;;;;;;0.30;0.30;;;21.10;43.10;;;;;;6318600;28;20505;-63
2021/04/25 09:24:22;;;;;;;0.60;0.40;;;21.10;43.10;;;;;;6318862;28;20042;-63
2021/04/25 09:27:27;;;;;;;0.43;0.40;;;21.10;43.10;;;;;;6318024;28;20428;-64
2021/04/25 09:30:27;;;;;;;0.40;0.40;;;21.10;43.10;;;;;;6318697;28;20486;-64
2021/04/25 09:33:48;;;;;;;0.82;0.40;;;21.10;43.90;;;;;;6318711;28;20032;-63
2021/04/25 09:36:49;;;;;;;0.32;0.30;;;21.10;43.10;;;;;;6318525;28;20032;-64
2021/04/25 09:40:09;;;;;;;0.85;0.30;;;21.10;43.30;;;;;;6318811;28;20505;-63
2021/04/25 09:43:15;;;;;;;0.60;0.40;;;21.10;43.20;;;;;;6318438;28;20028;-63
2021/04/25 09:46:16;;;;;;;0.30;0.30;;;21.10;43.30;;;;;;6317212;28;20024;-63
2021/04/25 09:49:34;;;;;;;0.32;0.30;;;21.10;43.20;;;;;;6318056;28;20060;-62
2021/04/25 09:52:37;;;;;;;0.40;0.30;;;21.10;43.30;;;;;;6317952;28;20038;-65
2021/04/25 09:55:39;;;;;;;0.43;0.30;;;21.10;43.30;;;;;;6318714;28;20044;-65
2021/04/25 09:58:58;;;;;;;0.70;0.40;;;21.10;43.20;;;;;;6318371;28;20415;-63
2021/04/25 10:02:07;;;;;;;0.55;0.40;;;21.10;43.40;;;;;;6318431;28;20556;-65
2021/04/25 10:05:08;;;;;;;0.35;0.35;;;21.10;43.50;;;;;;6318292;28;20051;-62
2021/04/25 10:08:30;;;;;;;0.50;0.40;;;21.10;43.30;;;;;;6317814;28;20024;-63
2021/04/25 10:11:32;;;;;;;1.95;0.40;;;21.10;43.30;;;;;;6318360;28;20024;-64
2021/04/25 10:14:34;;;;;;;0.40;0.40;;;21.10;43.20;;;;;;6318045;28;20032;-65
2021/04/25 10:17:34;;;;;;;0.45;0.40;;;21.10;43.40;;;;;;6318314;28;20020;-63
2021/04/25 10:20:35;;;;;;;0.50;0.40;;;21.10;43.40;;;;;;6318297;28;20083;-62
2021/04/25 10:23:36;;;;;;;0.35;0.30;;;21.10;43.20;;;;;;6317606;28;20035;-62
2021/04/25 10:26:47;;;;;;;0.52;0.30;;;21.10;43.20;;;;;;6317778;28;20220;-63
2021/04/25 10:29:54;;;;;;;0.85;0.30;;;21.10;43.10;;;;;;6316741;28;20035;-63
2021/04/25 10:32:57;;;;;;;1.00;0.20;;;21.10;43.10;;;;;;6315813;28;20027;-64
2021/04/25 10:35:58;;;;;;;5.25;0.40;;;21.10;43.10;;;;;;6317665;28;20044;-65
2021/04/25 10:38:58;;;;;;;0.50;0.30;;;21.10;43.10;;;;;;6318862;28;20513;-64
2021/04/25 10:45:19;;;;;;;0.40;0.35;;;21.10;43.10;;;;;;6322496;28;20678;-62
2021/04/25 10:48:23;;;;;;;0.52;0.50;;;21.10;43.10;;;;;;6321716;28;20028;-63
2021/04/25 10:51:24;;;;;;;0.40;0.30;;;21.10;43.10;;;;;;6322507;28;20062;-62
2021/04/25 10:54:24;;;;;;;0.20;0.20;;;21.10;43.10;;;;;;6322407;28;20413;-63
2021/04/25 10:57:25;;;;;;;3.60;0.38;;;21.10;43.00;;;;;;6322172;28;20475;-63
2021/04/25 11:03:32;;;;;;;1.02;0.30;;;21.10;43.10;;;;;;6321486;28;20182;-64
2021/04/25 11:06:32;;;;;;;0.30;0.20;;;21.10;43.00;;;;;;6321818;28;20776;-65
2021/04/25 11:09:52;;;;;;;0.30;0.30;;;21.10;43.10;;;;;;6320012;28;20032;-65
2021/04/25 11:12:53;;;;;;;0.47;0.38;;;21.10;43.10;;;;;;6321152;28;20038;-64
2021/04/25 11:15:55;;;;;;;0.30;0.30;;;21.10;42.90;;;;;;6320821;28;20032;-64
2021/04/25 11:19:07;;;;;;;0.70;0.22;;;21.10;42.70;;;;;;6321166;28;20024;-63
2021/04/25 11:22:07;;;;;;;0.65;0.40;;;21.10;43.00;;;;;;6320964;28;20027;-64
2021/04/25 11:25:32;;;;;;;0.28;0.28;;;21.10;42.90;;;;;;6321243;28;20382;-65
2021/04/25 11:28:51;;;;;;;0.52;0.40;;;21.10;42.80;;;;;;6321324;28;20073;-63
2021/04/25 11:31:53;;;;;;;0.30;0.30;;;21.10;42.80;;;;;;6321060;28;20023;-64
2021/04/25 11:34:59;;;;;;;0.20;0.20;;;21.10;43.60;;;;;;6320561;28;20039;-64
2021/04/25 11:38:06;;;;;;;1.05;0.30;;;21.20;43.80;;;;;;6320826;28;20036;-64
2021/04/25 11:41:07;;;;;;;2.60;0.30;;;21.10;43.10;;;;;;6320445;28;20032;-64
2021/04/25 11:44:08;;;;;;;1.58;0.30;;;21.20;43.80;;;;;;6320604;28;20054;-64
2021/04/25 11:47:10;;;;;;;0.57;0.30;;;21.20;43.40;;;;;;6320951;28;20591;-64
2021/04/25 11:50:12;;;;;;;1.98;0.35;;;21.10;43.10;;;;;;6319137;28;20051;-64
2021/04/25 11:53:29;;;;;;;1.77;0.20;;;21.10;43.00;;;;;;6320262;28;20024;-63
2021/04/25 11:56:32;;;;;;;0.30;0.20;;;21.10;43.00;;;;;;6303998;28;20040;-62
2021/04/25 11:59:32;;;;;;;1.08;0.60;;;21.10;43.50;;;;;;6310570;28;20371;-63
2021/04/25 12:02:36;;;;;;;3.20;0.40;;;21.10;43.20;;;;;;6316772;28;20024;-62
2021/04/25 12:05:38;;;;;;;6.00;0.50;;;21.20;43.10;;;;;;6313203;28;20036;-62
2021/04/25 12:08:49;;;;;;;1.45;0.32;;;21.20;43.20;;;;;;6312298;28;20484;-62
2021/04/25 12:11:50;;;;;;;0.47;0.30;;;21.20;43.20;;;;;;6318381;28;20081;-62
2021/04/25 12:15:05;;;;;;;9.68;1.15;;;21.10;43.10;;;;;;6303332;28;20047;-63
2021/04/25 12:18:05;;;;;;;11.32;0.45;;;21.10;43.30;;;;;;6316847;28;20016;-62
2021/04/25 12:21:08;;;;;;;25.17;1.20;;;21.10;43.30;;;;;;6309021;28;20539;-62
2021/04/25 12:24:09;;;;;;;30.30;1.40;;;21.10;43.40;;;;;;6312552;28;20298;-62
2021/04/25 12:27:09;;;;;;;12.02;1.40;;;21.10;43.40;;;;;;6316000;28;20076;-62
2021/04/25 12:30:21;;;;;;;13.90;1.00;;;21.10;43.60;;;;;;6316415;28;20035;-62
2021/04/25 12:33:22;;;;;;;23.27;1.58;;;21.10;43.60;;;;;;6317095;28;20081;-64
2021/04/25 12:36:28;;;;;;;15.70;1.00;;;21.10;43.80;;;;;;6315274;28;20067;-63
2021/04/25 12:39:39;;;;;;;11.68;0.85;;;21.20;43.80;;;;;;6316589;28;20028;-63
2021/04/25 12:42:40;;;;;;;18.27;1.55;;;21.20;43.70;;;;;;6314872;28;20063;-63
2021/04/25 12:45:44;;;;;;;13.50;1.10;;;21.20;43.20;;;;;;6316995;28;20654;-63
2021/04/25 12:48:59;;;;;;;16.05;1.10;;;21.20;43.30;;;;;;6314393;28;20351;-63
2021/04/25 12:51:59;;;;;;;7.03;1.10;;;21.20;43.50;;;;;;6301086;28;20040;-65
2021/04/25 12:55:00;;;;;;;8.63;0.80;;;21.20;43.50;;;;;;6313044;28;20032;-66
2021/04/25 12:58:09;;;;;;;10.65;1.10;;;21.20;43.90;;;;;;6316010;28;20028;-64
2021/04/25 13:01:20;;;;;;;11.63;0.80;;;21.20;43.70;;;;;;6314707;28;20421;-64
2021/04/25 13:04:29;;;;;;;9.13;0.90;;;21.20;43.60;;;;;;6312450;28;20020;-64
2021/04/25 13:07:30;;;;;;;4.60;0.70;;;21.20;43.60;;;;;;6316181;28;20032;-66
2021/04/25 13:10:32;;;;;;;7.80;1.00;;;21.20;43.60;;;;;;6315985;28;20031;-66
2021/04/25 13:13:34;;;;;;;10.00;0.90;;;21.20;43.60;;;;;;6314664;28;20478;-65
2021/04/25 13:16:35;;;;;;;6.20;0.60;;;21.20;43.70;;;;;;6315773;28;20024;-63
2021/04/25 13:19:36;;;;;;;6.47;1.05;;;21.20;43.70;;;;;;6315995;28;20024;-64
2021/04/25 13:22:36;;;;;;;4.72;0.60;;;21.20;43.70;;;;;;6314677;28;20063;-63
2021/04/25 13:25:43;;;;;;;6.88;1.10;;;21.20;43.60;;;;;;6313998;28;20398;-63
2021/04/25 13:28:44;;;;;;;3.47;0.65;;;21.20;43.60;;;;;;6315673;28;20028;-64
2021/04/25 13:31:46;;;;;;;141.25;8.68;;;21.20;43.60;;;;;;6316166;28;20474;-64
2021/04/25 13:34:47;;;;;;;35.85;2.25;;;21.20;45.80;;;;;;6314808;28;20527;-62
2021/04/25 13:37:48;;;;;;;21.95;1.25;;;21.30;45.00;;;;;;6314129;28;20379;-62
2021/04/25 13:40:50;;;;;;;7.93;1.48;;;21.20;43.70;;;;;;6295648;28;20112;-63
2021/04/25 13:43:51;;;;;;;4.93;0.70;;;21.20;43.90;;;;;;6313933;28;20035;-62
2021/04/25 13:46:51;;;;;;;2.75;0.57;;;21.30;43.80;;;;;;6314750;28;20584;-62
2021/04/25 13:49:52;;;;;;;3.22;0.50;;;21.20;43.60;;;;;;6315033;28;20099;-62
2021/04/25 13:52:52;;;;;;;5.95;0.70;;;21.20;43.40;;;;;;6302877;28;20089;-62
2021/04/25 13:55:53;;;;;;;3.35;0.90;;;21.20;43.40;;;;;;6313354;28;20236;-62
2021/04/25 13:58:54;;;;;;;2.70;0.52;;;21.20;43.60;;;;;;6315126;28;20099;-62
2021/04/25 14:01:55;;;;;;;3.88;0.80;;;21.20;43.40;;;;;;6315830;28;20107;-62
2021/04/25 14:04:55;;;;;;;3.25;0.52;;;21.20;43.50;;;;;;6313601;28;20429;-62
2021/04/25 14:07:56;;;;;;;4.00;0.55;;;21.20;43.40;;;;;;6305008;28;20065;-62
2021/04/25 14:10:57;;;;;;;5.07;0.70;;;21.20;43.40;;;;;;6300841;28;20020;-62
2021/04/25 14:13:57;;;;;;;7.43;0.55;;;21.20;43.30;;;;;;6299535;28;20491;-62
2021/04/25 14:16:58;;;;;;;4.90;1.00;;;21.20;43.30;;;;;;6313420;28;20036;-62
2021/04/25 14:19:59;;;;;;;2.35;0.65;;;21.20;43.40;;;;;;6315892;28;20018;-63
2021/04/25 14:23:00;;;;;;;2.45;0.50;;;21.20;43.30;;;;;;6308399;28;20020;-63
2021/04/25 14:26:01;;;;;;;5.93;0.50;;;21.20;43.40;;;;;;6304908;28;20069;-62
2021/04/25 14:29:01;;;;;;;3.13;0.88;;;21.20;43.50;;;;;;6302827;28;20475;-62
2021/04/25 14:32:02;;;;;;;6.47;0.75;;;21.20;43.60;;;;;;6303321;28;20024;-62
2021/04/25 14:35:03;;;;;;;5.38;0.50;;;21.20;43.60;;;;;;6309276;28;20038;-62
2021/04/25 14:38:04;;;;;;;3.50;0.30;;;21.20;43.60;;;;;;6303912;28;20651;-62
2021/04/25 14:41:05;;;;;;;3.95;0.50;;;21.20;43.50;;;;;;6299711;28;20043;-62
2021/04/25 14:44:08;;;;;;;3.28;0.40;;;21.20;43.60;;;;;;6305773;28;20116;-62
2021/04/25 14:47:08;;;;;;;2.10;0.80;;;21.20;43.60;;;;;;6303433;28;20028;-62
2021/04/25 14:50:09;;;;;;;2.13;0.50;;;21.20;43.50;;;;;;6304211;28;20471;-62
2021/04/25 14:53:10;;;;;;;0.77;0.50;;;21.20;43.60;;;;;;6302651;28;20052;-62
2021/04/25 14:56:11;;;;;;;0.73;0.30;;;21.20;43.40;;;;;;6301911;28;20038;-62
2021/04/25 14:59:12;;;;;;;1.15;0.40;;;21.20;43.50;;;;;;6306975;28;20068;-62
2021/04/25 15:02:13;;;;;;;5.10;0.68;;;21.20;43.60;;;;;;6302278;28;20028;-63
2021/04/25 15:05:14;;;;;;;4.97;0.40;;;21.20;43.40;;;;;;6303570;28;20029;-62
2021/04/25 15:08:14;;;;;;;1.25;0.43;;;21.20;43.50;;;;;;6301547;28;20421;-62
2021/04/25 15:11:15;;;;;;;1.13;0.40;;;21.20;43.40;;;;;;6303495;28;20024;-62
2021/04/25 15:14:15;;;;;;;0.70;0.40;;;21.20;43.50;;;;;;6310469;28;20044;-63
2021/04/25 15:17:16;;;;;;;3.38;0.25;;;21.20;43.60;;;;;;6314656;28;20457;-62
2021/04/25 15:20:17;;;;;;;1.10;0.40;;;21.20;43.50;;;;;;6313965;28;20032;-62
2021/04/25 15:23:18;;;;;;;1.55;0.40;;;21.20;43.60;;;;;;6314772;28;20027;-62
2021/04/25 15:26:18;;;;;;;3.03;0.40;;;21.20;43.60;;;;;;6316861;28;20044;-62
2021/04/25 15:29:19;;;;;;;0.28;0.20;;;21.20;43.70;;;;;;6316842;28;20281;-62
2021/04/25 15:32:20;;;;;;;1.55;0.47;;;21.20;43.60;;;;;;6318044;28;20069;-62
2021/04/25 15:35:25;;;;;;;2.47;0.20;;;21.20;43.70;;;;;;6318407;28;20036;-62
2021/04/25 15:38:26;;;;;;;4.75;0.57;;;21.20;43.70;;;;;;6317254;28;20019;-62
2021/04/25 15:41:26;;;;;;;0.50;0.30;;;21.20;43.70;;;;;;6316796;28;20456;-63
2021/04/25 15:44:27;;;;;;;0.30;0.20;;;21.20;43.60;;;;;;6318466;28;20024;-62
2021/04/25 15:47:27;;;;;;;2.60;0.45;;;21.20;44.10;;;;;;6316918;28;20032;-63
2021/04/25 15:50:28;;;;;;;1.48;0.40;;;21.20;43.90;;;;;;6315060;28;20079;-62
2021/04/25 15:53:28;;;;;;;1.58;0.52;;;21.20;43.70;;;;;;6299222;28;20123;-62